sensor_id;sensor_type;location;lat;lon;timestamp;temperature;humidity
12977;DHT22;6553;48.412;9.514;2024-02-14T00:00:17;18.30;62.30
12977;DHT22;6553;48.412;9.514;2024-02-14T00:02:47;18.20;62.10
12977;DHT22;6553;48.412;9.514;2024-02-14T00:05:16;18.20;62.30
12977;DHT22;6553;48.412;9.514;2024-02-14T00:07:42;18.30;62.30
12977;DHT22;6553;48.412;9.514;2024-02-14T00:10:09;18.30;62.20
12977;DHT22;6553;48.412;9.514;2024-02-14T00:12:36;18.20;62.20
12977;DHT22;6553;48.412;9.514;2024-02-14T00:15:06;18.30;62.20
12977;DHT22;6553;48.412;9.514;2024-02-14T00:17:33;18.20;62.00
12977;DHT22;6553;48.412;9.514;2024-02-14T00:20:03;18.20;62.00
12977;DHT22;6553;48.412;9.514;2024-02-14T00:22:30;18.20;61.90
12977;DHT22;6553;48.412;9.514;2024-02-14T00:24:56;18.30;62.10
12977;DHT22;6553;48.412;9.514;2024-02-14T00:27:22;18.20;62.00
12977;DHT22;6553;48.412;9.514;2024-02-14T00:29:47;18.20;62.00
12977;DHT22;6553;48.412;9.514;2024-02-14T00:32:13;18.20;61.90
12977;DHT22;6553;48.412;9.514;2024-02-14T00:34:39;18.20;61.90
12977;DHT22;6553;48.412;9.514;2024-02-14T00:37:05;18.30;62.10
12977;DHT22;6553;48.412;9.514;2024-02-14T00:39:31;18.30;62.00
12977;DHT22;6553;48.412;9.514;2024-02-14T00:41:56;18.20;61.90
12977;DHT22;6553;48.412;9.514;2024-02-14T00:44:22;18.20;61.90
12977;DHT22;6553;48.412;9.514;2024-02-14T00:46:48;18.20;62.00
12977;DHT22;6553;48.412;9.514;2024-02-14T00:49:14;18.20;61.90
12977;DHT22;6553;48.412;9.514;2024-02-14T00:51:40;18.20;61.90
12977;DHT22;6553;48.412;9.514;2024-02-14T00:54:06;18.20;62.00
12977;DHT22;6553;48.412;9.514;2024-02-14T00:56:33;18.20;61.90
12977;DHT22;6553;48.412;9.514;2024-02-14T00:59:00;18.20;61.90
12977;DHT22;6553;48.412;9.514;2024-02-14T01:01:26;18.20;61.90
12977;DHT22;6553;48.412;9.514;2024-02-14T01:03:52;18.20;61.90
12977;DHT22;6553;48.412;9.514;2024-02-14T01:06:18;18.20;61.90
12977;DHT22;6553;48.412;9.514;2024-02-14T01:08:45;18.20;62.00
12977;DHT22;6553;48.412;9.514;2024-02-14T01:11:11;18.20;61.90
12977;DHT22;6553;48.412;9.514;2024-02-14T01:13:36;18.20;61.90
12977;DHT22;6553;48.412;9.514;2024-02-14T01:16:03;18.20;61.90
12977;DHT22;6553;48.412;9.514;2024-02-14T01:18:33;18.30;61.90
12977;DHT22;6553;48.412;9.514;2024-02-14T01:20:59;18.20;61.80
12977;DHT22;6553;48.412;9.514;2024-02-14T01:23:27;18.30;61.90
12977;DHT22;6553;48.412;9.514;2024-02-14T01:25:53;18.20;61.70
12977;DHT22;6553;48.412;9.514;2024-02-14T01:28:20;18.20;61.60
12977;DHT22;6553;48.412;9.514;2024-02-14T01:30:46;18.20;61.80
12977;DHT22;6553;48.412;9.514;2024-02-14T01:33:12;18.20;61.80
12977;DHT22;6553;48.412;9.514;2024-02-14T01:35:38;18.20;61.80
12977;DHT22;6553;48.412;9.514;2024-02-14T01:38:05;18.20;61.80
12977;DHT22;6553;48.412;9.514;2024-02-14T01:40:32;18.20;61.80
12977;DHT22;6553;48.412;9.514;2024-02-14T01:42:58;18.20;61.80
12977;DHT22;6553;48.412;9.514;2024-02-14T01:45:24;18.20;61.80
12977;DHT22;6553;48.412;9.514;2024-02-14T01:47:50;18.20;61.90
12977;DHT22;6553;48.412;9.514;2024-02-14T01:50:16;18.20;61.80
12977;DHT22;6553;48.412;9.514;2024-02-14T01:52:44;18.20;61.70
12977;DHT22;6553;48.412;9.514;2024-02-14T01:55:12;18.20;61.80
12977;DHT22;6553;48.412;9.514;2024-02-14T01:57:39;18.20;61.80
12977;DHT22;6553;48.412;9.514;2024-02-14T02:00:05;18.20;61.80
12977;DHT22;6553;48.412;9.514;2024-02-14T02:02:37;18.20;61.70
12977;DHT22;6553;48.412;9.514;2024-02-14T02:05:08;18.20;61.80
12977;DHT22;6553;48.412;9.514;2024-02-14T02:07:34;18.20;61.80
12977;DHT22;6553;48.412;9.514;2024-02-14T02:10:00;18.20;61.90
12977;DHT22;6553;48.412;9.514;2024-02-14T02:12:26;18.20;61.80
12977;DHT22;6553;48.412;9.514;2024-02-14T02:14:53;18.20;61.60
12977;DHT22;6553;48.412;9.514;2024-02-14T02:17:19;18.20;61.70
12977;DHT22;6553;48.412;9.514;2024-02-14T02:19:46;18.20;61.80
12977;DHT22;6553;48.412;9.514;2024-02-14T02:22:12;18.20;61.80
12977;DHT22;6553;48.412;9.514;2024-02-14T02:24:38;18.20;61.80
12977;DHT22;6553;48.412;9.514;2024-02-14T02:27:04;18.20;61.80
12977;DHT22;6553;48.412;9.514;2024-02-14T02:29:30;18.20;61.80
12977;DHT22;6553;48.412;9.514;2024-02-14T02:31:58;18.20;61.80
12977;DHT22;6553;48.412;9.514;2024-02-14T02:34:23;18.20;61.70
12977;DHT22;6553;48.412;9.514;2024-02-14T02:36:49;18.20;61.90
12977;DHT22;6553;48.412;9.514;2024-02-14T02:39:16;18.20;61.80
12977;DHT22;6553;48.412;9.514;2024-02-14T02:41:42;18.20;61.80
12977;DHT22;6553;48.412;9.514;2024-02-14T02:44:13;18.20;61.70
12977;DHT22;6553;48.412;9.514;2024-02-14T02:46:38;18.20;61.90
12977;DHT22;6553;48.412;9.514;2024-02-14T02:49:04;18.20;61.80
12977;DHT22;6553;48.412;9.514;2024-02-14T02:51:30;18.20;61.80
12977;DHT22;6553;48.412;9.514;2024-02-14T02:53:55;18.20;61.80
12977;DHT22;6553;48.412;9.514;2024-02-14T02:56:21;18.20;61.80
12977;DHT22;6553;48.412;9.514;2024-02-14T02:58:47;18.20;61.80
12977;DHT22;6553;48.412;9.514;2024-02-14T03:01:14;18.30;61.90
12977;DHT22;6553;48.412;9.514;2024-02-14T03:03:40;18.20;61.70
12977;DHT22;6553;48.412;9.514;2024-02-14T03:06:06;18.20;61.80
12977;DHT22;6553;48.412;9.514;2024-02-14T03:08:33;18.20;61.80
12977;DHT22;6553;48.412;9.514;2024-02-14T03:11:06;18.20;61.70
12977;DHT22;6553;48.412;9.514;2024-02-14T03:13:33;18.20;61.80
12977;DHT22;6553;48.412;9.514;2024-02-14T03:15:59;18.20;61.80
12977;DHT22;6553;48.412;9.514;2024-02-14T03:18:25;18.20;61.80
12977;DHT22;6553;48.412;9.514;2024-02-14T03:20:51;18.30;61.90
12977;DHT22;6553;48.412;9.514;2024-02-14T03:23:19;18.20;61.80
12977;DHT22;6553;48.412;9.514;2024-02-14T03:25:45;18.20;61.90
12977;DHT22;6553;48.412;9.514;2024-02-14T03:28:11;18.20;61.90
12977;DHT22;6553;48.412;9.514;2024-02-14T03:30:38;18.20;61.90
12977;DHT22;6553;48.412;9.514;2024-02-14T03:33:07;18.20;62.00
12977;DHT22;6553;48.412;9.514;2024-02-14T03:35:36;18.20;62.00
12977;DHT22;6553;48.412;9.514;2024-02-14T03:38:02;18.20;62.00
12977;DHT22;6553;48.412;9.514;2024-02-14T03:40:28;18.20;61.90
12977;DHT22;6553;48.412;9.514;2024-02-14T03:42:56;18.20;61.90
12977;DHT22;6553;48.412;9.514;2024-02-14T03:45:22;18.20;61.90
12977;DHT22;6553;48.412;9.514;2024-02-14T03:47:48;18.20;62.00
12977;DHT22;6553;48.412;9.514;2024-02-14T03:50:14;18.20;61.90
12977;DHT22;6553;48.412;9.514;2024-02-14T03:52:41;18.20;61.90
12977;DHT22;6553;48.412;9.514;2024-02-14T03:55:10;18.20;61.90
12977;DHT22;6553;48.412;9.514;2024-02-14T03:57:39;18.20;61.90
12977;DHT22;6553;48.412;9.514;2024-02-14T04:00:06;18.20;61.90
12977;DHT22;6553;48.412;9.514;2024-02-14T04:02:39;18.30;61.90
12977;DHT22;6553;48.412;9.514;2024-02-14T04:05:05;18.20;61.80
12977;DHT22;6553;48.412;9.514;2024-02-14T04:07:32;18.20;61.90
12977;DHT22;6553;48.412;9.514;2024-02-14T04:09:59;18.20;61.90
12977;DHT22;6553;48.412;9.514;2024-02-14T04:12:25;18.20;61.90
12977;DHT22;6553;48.412;9.514;2024-02-14T04:14:51;18.20;61.90
12977;DHT22;6553;48.412;9.514;2024-02-14T04:17:17;18.30;62.00
12977;DHT22;6553;48.412;9.514;2024-02-14T04:19:42;18.20;61.90
12977;DHT22;6553;48.412;9.514;2024-02-14T04:22:08;18.20;62.00
12977;DHT22;6553;48.412;9.514;2024-02-14T04:24:34;18.30;62.00
12977;DHT22;6553;48.412;9.514;2024-02-14T04:27:00;18.20;62.00
12977;DHT22;6553;48.412;9.514;2024-02-14T04:29:28;18.20;62.00
12977;DHT22;6553;48.412;9.514;2024-02-14T04:31:56;18.20;61.90
12977;DHT22;6553;48.412;9.514;2024-02-14T04:34:22;18.30;62.00
12977;DHT22;6553;48.412;9.514;2024-02-14T04:36:48;18.30;62.10
12977;DHT22;6553;48.412;9.514;2024-02-14T04:39:14;18.20;61.90
12977;DHT22;6553;48.412;9.514;2024-02-14T04:41:39;18.20;61.90
12977;DHT22;6553;48.412;9.514;2024-02-14T04:44:05;18.30;62.00
12977;DHT22;6553;48.412;9.514;2024-02-14T04:46:34;18.20;61.90
12977;DHT22;6553;48.412;9.514;2024-02-14T04:49:01;18.30;62.10
12977;DHT22;6553;48.412;9.514;2024-02-14T04:51:29;18.20;61.90
12977;DHT22;6553;48.412;9.514;2024-02-14T04:53:56;18.20;61.90
12977;DHT22;6553;48.412;9.514;2024-02-14T04:56:25;18.30;62.00
12977;DHT22;6553;48.412;9.514;2024-02-14T04:58:55;18.30;62.00
12977;DHT22;6553;48.412;9.514;2024-02-14T05:01:21;18.20;61.90
12977;DHT22;6553;48.412;9.514;2024-02-14T05:03:48;18.20;61.90
12977;DHT22;6553;48.412;9.514;2024-02-14T05:06:15;18.30;62.00
12977;DHT22;6553;48.412;9.514;2024-02-14T05:08:41;18.30;62.00
12977;DHT22;6553;48.412;9.514;2024-02-14T05:11:07;18.30;62.00
12977;DHT22;6553;48.412;9.514;2024-02-14T05:13:32;18.30;62.10
12977;DHT22;6553;48.412;9.514;2024-02-14T05:16:01;18.20;62.00
12977;DHT22;6553;48.412;9.514;2024-02-14T05:18:28;18.30;62.00
12977;DHT22;6553;48.412;9.514;2024-02-14T05:20:53;18.30;62.80
12977;DHT22;6553;48.412;9.514;2024-02-14T05:23:19;18.20;61.90
12977;DHT22;6553;48.412;9.514;2024-02-14T05:25:45;18.30;62.40
12977;DHT22;6553;48.412;9.514;2024-02-14T05:28:11;18.30;62.10
12977;DHT22;6553;48.412;9.514;2024-02-14T05:30:40;18.20;61.90
12977;DHT22;6553;48.412;9.514;2024-02-14T05:33:06;18.20;61.90
12977;DHT22;6553;48.412;9.514;2024-02-14T05:35:32;18.20;62.00
12977;DHT22;6553;48.412;9.514;2024-02-14T05:37:57;18.20;61.90
12977;DHT22;6553;48.412;9.514;2024-02-14T05:40:23;18.20;62.00
12977;DHT22;6553;48.412;9.514;2024-02-14T05:42:49;18.20;61.90
12977;DHT22;6553;48.412;9.514;2024-02-14T05:45:15;18.20;62.00
12977;DHT22;6553;48.412;9.514;2024-02-14T05:47:42;18.20;61.90
12977;DHT22;6553;48.412;9.514;2024-02-14T05:50:09;18.20;61.90
12977;DHT22;6553;48.412;9.514;2024-02-14T05:52:37;18.20;61.90
12977;DHT22;6553;48.412;9.514;2024-02-14T05:55:04;18.20;61.90
12977;DHT22;6553;48.412;9.514;2024-02-14T05:57:30;18.20;61.80
12977;DHT22;6553;48.412;9.514;2024-02-14T05:59:56;18.20;62.00
12977;DHT22;6553;48.412;9.514;2024-02-14T06:02:22;18.20;61.90
12977;DHT22;6553;48.412;9.514;2024-02-14T06:04:48;18.20;61.80
12977;DHT22;6553;48.412;9.514;2024-02-14T06:07:14;18.20;61.80
12977;DHT22;6553;48.412;9.514;2024-02-14T06:09:39;18.20;61.90
12977;DHT22;6553;48.412;9.514;2024-02-14T06:12:06;18.20;61.90
12977;DHT22;6553;48.412;9.514;2024-02-14T06:14:32;18.20;61.80
12977;DHT22;6553;48.412;9.514;2024-02-14T06:16:59;18.20;61.90
12977;DHT22;6553;48.412;9.514;2024-02-14T06:19:26;18.20;61.70
12977;DHT22;6553;48.412;9.514;2024-02-14T06:21:52;18.20;61.80
12977;DHT22;6553;48.412;9.514;2024-02-14T06:24:18;18.20;61.80
12977;DHT22;6553;48.412;9.514;2024-02-14T06:26:45;18.20;61.80
12977;DHT22;6553;48.412;9.514;2024-02-14T06:29:11;18.20;61.80
12977;DHT22;6553;48.412;9.514;2024-02-14T06:31:37;18.20;61.70
12977;DHT22;6553;48.412;9.514;2024-02-14T06:34:03;18.20;61.70
12977;DHT22;6553;48.412;9.514;2024-02-14T06:36:28;18.20;61.60
12977;DHT22;6553;48.412;9.514;2024-02-14T06:38:54;18.20;61.70
12977;DHT22;6553;48.412;9.514;2024-02-14T06:41:20;18.20;61.70
12977;DHT22;6553;48.412;9.514;2024-02-14T06:43:46;18.20;61.60
12977;DHT22;6553;48.412;9.514;2024-02-14T06:46:12;18.20;61.60
12977;DHT22;6553;48.412;9.514;2024-02-14T06:48:37;18.20;61.80
12977;DHT22;6553;48.412;9.514;2024-02-14T06:51:04;18.20;61.60
12977;DHT22;6553;48.412;9.514;2024-02-14T06:53:32;18.20;61.50
12977;DHT22;6553;48.412;9.514;2024-02-14T06:55:57;18.20;61.50
12977;DHT22;6553;48.412;9.514;2024-02-14T06:58:23;18.20;61.50
12977;DHT22;6553;48.412;9.514;2024-02-14T07:00:49;18.20;62.40
12977;DHT22;6553;48.412;9.514;2024-02-14T07:03:15;18.20;61.60
12977;DHT22;6553;48.412;9.514;2024-02-14T07:05:41;18.20;61.60
12977;DHT22;6553;48.412;9.514;2024-02-14T07:08:07;18.20;61.70
12977;DHT22;6553;48.412;9.514;2024-02-14T07:10:33;18.20;61.60
12977;DHT22;6553;48.412;9.514;2024-02-14T07:12:59;18.20;61.60
12977;DHT22;6553;48.412;9.514;2024-02-14T07:15:24;18.20;61.60
12977;DHT22;6553;48.412;9.514;2024-02-14T07:17:54;18.20;61.50
12977;DHT22;6553;48.412;9.514;2024-02-14T07:20:21;18.20;61.60
12977;DHT22;6553;48.412;9.514;2024-02-14T07:22:47;18.30;61.60
12977;DHT22;6553;48.412;9.514;2024-02-14T07:25:21;18.20;61.50
12977;DHT22;6553;48.412;9.514;2024-02-14T07:27:47;18.20;61.60
12977;DHT22;6553;48.412;9.514;2024-02-14T07:30:15;18.30;61.60
12977;DHT22;6553;48.412;9.514;2024-02-14T07:32:43;18.30;61.60
12977;DHT22;6553;48.412;9.514;2024-02-14T07:35:10;18.30;61.60
12977;DHT22;6553;48.412;9.514;2024-02-14T07:37:36;18.30;61.60
12977;DHT22;6553;48.412;9.514;2024-02-14T07:40:02;18.20;61.60
12977;DHT22;6553;48.412;9.514;2024-02-14T07:42:28;18.30;61.60
12977;DHT22;6553;48.412;9.514;2024-02-14T07:44:54;18.30;61.60
12977;DHT22;6553;48.412;9.514;2024-02-14T07:47:21;18.30;61.60
12977;DHT22;6553;48.412;9.514;2024-02-14T07:49:47;18.30;61.70
12977;DHT22;6553;48.412;9.514;2024-02-14T07:52:13;18.30;61.80
12977;DHT22;6553;48.412;9.514;2024-02-14T07:54:39;18.30;61.80
12977;DHT22;6553;48.412;9.514;2024-02-14T07:57:05;18.30;61.80
12977;DHT22;6553;48.412;9.514;2024-02-14T07:59:30;18.30;61.80
12977;DHT22;6553;48.412;9.514;2024-02-14T08:01:56;18.30;61.80
12977;DHT22;6553;48.412;9.514;2024-02-14T08:04:22;18.20;61.70
12977;DHT22;6553;48.412;9.514;2024-02-14T08:06:49;18.30;61.80
12977;DHT22;6553;48.412;9.514;2024-02-14T08:09:15;18.30;61.80
12977;DHT22;6553;48.412;9.514;2024-02-14T08:11:41;18.30;61.80
12977;DHT22;6553;48.412;9.514;2024-02-14T08:14:07;18.30;61.90
12977;DHT22;6553;48.412;9.514;2024-02-14T08:16:32;18.30;61.90
12977;DHT22;6553;48.412;9.514;2024-02-14T08:18:58;18.30;61.80
12977;DHT22;6553;48.412;9.514;2024-02-14T08:21:25;18.30;61.80
12977;DHT22;6553;48.412;9.514;2024-02-14T08:23:53;18.30;61.80
12977;DHT22;6553;48.412;9.514;2024-02-14T08:26:20;18.30;61.70
12977;DHT22;6553;48.412;9.514;2024-02-14T08:28:48;18.30;61.60
12977;DHT22;6553;48.412;9.514;2024-02-14T08:31:14;18.40;61.80
12977;DHT22;6553;48.412;9.514;2024-02-14T08:33:40;18.40;61.70
12977;DHT22;6553;48.412;9.514;2024-02-14T08:36:06;18.40;61.80
12977;DHT22;6553;48.412;9.514;2024-02-14T08:38:33;18.40;61.80
12977;DHT22;6553;48.412;9.514;2024-02-14T08:41:01;18.40;61.70
12977;DHT22;6553;48.412;9.514;2024-02-14T08:43:28;18.40;61.70
12977;DHT22;6553;48.412;9.514;2024-02-14T08:45:54;18.40;61.80
12977;DHT22;6553;48.412;9.514;2024-02-14T08:48:21;18.40;61.60
12977;DHT22;6553;48.412;9.514;2024-02-14T08:50:47;18.40;61.60
12977;DHT22;6553;48.412;9.514;2024-02-14T08:53:13;18.50;61.70
12977;DHT22;6553;48.412;9.514;2024-02-14T08:55:42;18.50;61.70
12977;DHT22;6553;48.412;9.514;2024-02-14T08:58:08;18.40;61.70
12977;DHT22;6553;48.412;9.514;2024-02-14T09:00:37;18.50;61.80
12977;DHT22;6553;48.412;9.514;2024-02-14T09:03:05;18.50;61.80
12977;DHT22;6553;48.412;9.514;2024-02-14T09:05:31;18.50;61.80
12977;DHT22;6553;48.412;9.514;2024-02-14T09:07:57;18.50;61.80
12977;DHT22;6553;48.412;9.514;2024-02-14T09:10:23;18.50;61.80
12977;DHT22;6553;48.412;9.514;2024-02-14T09:12:49;18.50;62.60
12977;DHT22;6553;48.412;9.514;2024-02-14T09:15:14;18.50;61.80
12977;DHT22;6553;48.412;9.514;2024-02-14T09:17:40;18.50;61.80
12977;DHT22;6553;48.412;9.514;2024-02-14T09:20:08;18.50;61.70
12977;DHT22;6553;48.412;9.514;2024-02-14T09:22:36;18.50;61.70
12977;DHT22;6553;48.412;9.514;2024-02-14T09:25:02;18.60;61.80
12977;DHT22;6553;48.412;9.514;2024-02-14T09:27:31;18.60;61.80
12977;DHT22;6553;48.412;9.514;2024-02-14T09:29:58;18.50;61.70
12977;DHT22;6553;48.412;9.514;2024-02-14T09:32:24;18.50;61.80
12977;DHT22;6553;48.412;9.514;2024-02-14T09:34:50;18.50;61.80
12977;DHT22;6553;48.412;9.514;2024-02-14T09:37:16;18.50;61.90
12977;DHT22;6553;48.412;9.514;2024-02-14T09:39:42;18.50;61.90
12977;DHT22;6553;48.412;9.514;2024-02-14T09:42:13;18.50;61.90
12977;DHT22;6553;48.412;9.514;2024-02-14T09:44:40;18.60;62.00
12977;DHT22;6553;48.412;9.514;2024-02-14T09:47:07;18.60;62.00
12977;DHT22;6553;48.412;9.514;2024-02-14T09:49:35;18.50;62.00
12977;DHT22;6553;48.412;9.514;2024-02-14T09:52:05;18.60;62.10
12977;DHT22;6553;48.412;9.514;2024-02-14T09:54:33;18.60;62.00
12977;DHT22;6553;48.412;9.514;2024-02-14T09:57:04;18.60;62.00
12977;DHT22;6553;48.412;9.514;2024-02-14T09:59:32;18.60;62.10
12977;DHT22;6553;48.412;9.514;2024-02-14T10:01:58;18.50;62.00
12977;DHT22;6553;48.412;9.514;2024-02-14T10:04:24;18.60;62.10
12977;DHT22;6553;48.412;9.514;2024-02-14T10:06:51;18.60;62.10
12977;DHT22;6553;48.412;9.514;2024-02-14T10:09:21;18.60;62.20
12977;DHT22;6553;48.412;9.514;2024-02-14T10:11:48;18.60;62.20
12977;DHT22;6553;48.412;9.514;2024-02-14T10:14:14;18.60;62.20
12977;DHT22;6553;48.412;9.514;2024-02-14T10:16:40;18.60;62.20
12977;DHT22;6553;48.412;9.514;2024-02-14T10:19:15;18.60;62.30
12977;DHT22;6553;48.412;9.514;2024-02-14T10:21:44;18.60;62.30
12977;DHT22;6553;48.412;9.514;2024-02-14T10:24:21;18.60;62.20
12977;DHT22;6553;48.412;9.514;2024-02-14T10:26:48;18.60;62.30
12977;DHT22;6553;48.412;9.514;2024-02-14T10:29:13;18.60;62.30
12977;DHT22;6553;48.412;9.514;2024-02-14T10:31:40;18.60;62.30
12977;DHT22;6553;48.412;9.514;2024-02-14T10:34:07;18.70;62.40
12977;DHT22;6553;48.412;9.514;2024-02-14T10:36:33;18.60;62.30
12977;DHT22;6553;48.412;9.514;2024-02-14T10:39:01;18.60;62.40
12977;DHT22;6553;48.412;9.514;2024-02-14T10:41:30;18.60;62.40
12977;DHT22;6553;48.412;9.514;2024-02-14T10:44:04;18.60;62.40
12977;DHT22;6553;48.412;9.514;2024-02-14T10:46:36;18.70;62.50
12977;DHT22;6553;48.412;9.514;2024-02-14T10:49:04;18.60;62.40
12977;DHT22;6553;48.412;9.514;2024-02-14T10:51:33;18.70;62.50
12977;DHT22;6553;48.412;9.514;2024-02-14T10:54:12;18.70;62.50
12977;DHT22;6553;48.412;9.514;2024-02-14T10:56:42;18.70;62.50
12977;DHT22;6553;48.412;9.514;2024-02-14T10:59:17;18.70;62.60
12977;DHT22;6553;48.412;9.514;2024-02-14T11:01:46;18.70;62.60
12977;DHT22;6553;48.412;9.514;2024-02-14T11:04:12;18.70;62.60
12977;DHT22;6553;48.412;9.514;2024-02-14T11:06:46;18.70;62.60
12977;DHT22;6553;48.412;9.514;2024-02-14T11:09:13;18.70;62.60
12977;DHT22;6553;48.412;9.514;2024-02-14T11:11:42;18.70;62.70
12977;DHT22;6553;48.412;9.514;2024-02-14T11:14:09;18.70;62.80
12977;DHT22;6553;48.412;9.514;2024-02-14T11:16:37;18.70;62.70
12977;DHT22;6553;48.412;9.514;2024-02-14T11:19:13;18.70;62.80
12977;DHT22;6553;48.412;9.514;2024-02-14T11:21:44;18.70;62.80
12977;DHT22;6553;48.412;9.514;2024-02-14T11:24:13;18.70;62.80
12977;DHT22;6553;48.412;9.514;2024-02-14T11:26:50;18.70;62.80
12977;DHT22;6553;48.412;9.514;2024-02-14T11:29:17;18.70;62.80
12977;DHT22;6553;48.412;9.514;2024-02-14T11:31:44;18.70;62.80
12977;DHT22;6553;48.412;9.514;2024-02-14T11:34:17;18.70;62.80
12977;DHT22;6553;48.412;9.514;2024-02-14T11:36:44;18.70;62.90
12977;DHT22;6553;48.412;9.514;2024-02-14T11:39:13;18.70;62.90
12977;DHT22;6553;48.412;9.514;2024-02-14T11:41:39;18.70;63.30
12977;DHT22;6553;48.412;9.514;2024-02-14T11:44:07;18.70;63.00
12977;DHT22;6553;48.412;9.514;2024-02-14T11:46:35;18.70;63.00
12977;DHT22;6553;48.412;9.514;2024-02-14T11:49:02;18.70;63.00
12977;DHT22;6553;48.412;9.514;2024-02-14T11:51:30;18.70;63.00
12977;DHT22;6553;48.412;9.514;2024-02-14T11:53:58;18.70;63.00
12977;DHT22;6553;48.412;9.514;2024-02-14T11:56:37;18.70;63.00
12977;DHT22;6553;48.412;9.514;2024-02-14T11:59:05;18.70;63.00
12977;DHT22;6553;48.412;9.514;2024-02-14T12:01:38;18.70;63.10
12977;DHT22;6553;48.412;9.514;2024-02-14T12:04:06;18.70;63.10
12977;DHT22;6553;48.412;9.514;2024-02-14T12:06:34;18.70;63.20
12977;DHT22;6553;48.412;9.514;2024-02-14T12:09:05;18.70;63.10
12977;DHT22;6553;48.412;9.514;2024-02-14T12:11:32;18.70;63.10
12977;DHT22;6553;48.412;9.514;2024-02-14T12:14:07;18.70;63.20
12977;DHT22;6553;48.412;9.514;2024-02-14T12:16:38;18.70;63.20
12977;DHT22;6553;48.412;9.514;2024-02-14T12:19:07;18.70;63.20
12977;DHT22;6553;48.412;9.514;2024-02-14T12:21:42;18.70;63.20
12977;DHT22;6553;48.412;9.514;2024-02-14T12:24:11;18.70;63.20
12977;DHT22;6553;48.412;9.514;2024-02-14T12:26:40;18.70;63.20
12977;DHT22;6553;48.412;9.514;2024-02-14T12:29:08;18.70;63.20
12977;DHT22;6553;48.412;9.514;2024-02-14T12:31:36;18.80;63.30
12977;DHT22;6553;48.412;9.514;2024-02-14T12:34:03;18.70;63.30
12977;DHT22;6553;48.412;9.514;2024-02-14T12:36:34;18.70;63.40
12977;DHT22;6553;48.412;9.514;2024-02-14T12:39:01;18.70;63.30
12977;DHT22;6553;48.412;9.514;2024-02-14T12:41:28;18.80;64.30
12977;DHT22;6553;48.412;9.514;2024-02-14T12:44:00;18.80;63.50
12977;DHT22;6553;48.412;9.514;2024-02-14T12:46:26;18.80;63.50
12977;DHT22;6553;48.412;9.514;2024-02-14T12:48:53;18.80;63.60
12977;DHT22;6553;48.412;9.514;2024-02-14T12:51:19;18.80;63.60
12977;DHT22;6553;48.412;9.514;2024-02-14T12:53:45;18.80;63.70
12977;DHT22;6553;48.412;9.514;2024-02-14T12:56:11;18.80;63.60
12977;DHT22;6553;48.412;9.514;2024-02-14T12:58:37;18.80;63.60
12977;DHT22;6553;48.412;9.514;2024-02-14T13:01:03;18.80;63.60
12977;DHT22;6553;48.412;9.514;2024-02-14T13:03:34;18.80;63.60
12977;DHT22;6553;48.412;9.514;2024-02-14T13:06:01;18.80;63.60
12977;DHT22;6553;48.412;9.514;2024-02-14T13:08:26;18.80;64.40
12977;DHT22;6553;48.412;9.514;2024-02-14T13:10:53;18.80;63.60
12977;DHT22;6553;48.412;9.514;2024-02-14T13:13:19;18.80;63.60
12977;DHT22;6553;48.412;9.514;2024-02-14T13:15:45;18.80;63.60
12977;DHT22;6553;48.412;9.514;2024-02-14T13:18:11;18.80;63.60
12977;DHT22;6553;48.412;9.514;2024-02-14T13:20:36;18.80;63.60
12977;DHT22;6553;48.412;9.514;2024-02-14T13:23:03;18.80;63.60
12977;DHT22;6553;48.412;9.514;2024-02-14T13:25:29;18.80;63.60
12977;DHT22;6553;48.412;9.514;2024-02-14T13:27:55;18.80;63.70
12977;DHT22;6553;48.412;9.514;2024-02-14T13:30:21;18.80;63.70
12977;DHT22;6553;48.412;9.514;2024-02-14T13:32:48;18.80;63.70
12977;DHT22;6553;48.412;9.514;2024-02-14T13:35:14;18.80;63.80
12977;DHT22;6553;48.412;9.514;2024-02-14T13:37:39;18.80;64.10
12977;DHT22;6553;48.412;9.514;2024-02-14T13:40:06;18.80;63.90
12977;DHT22;6553;48.412;9.514;2024-02-14T13:42:38;18.90;63.90
12977;DHT22;6553;48.412;9.514;2024-02-14T13:45:05;18.90;64.00
12977;DHT22;6553;48.412;9.514;2024-02-14T13:47:38;18.90;63.90
12977;DHT22;6553;48.412;9.514;2024-02-14T13:50:09;18.90;64.00
12977;DHT22;6553;48.412;9.514;2024-02-14T13:52:35;18.80;64.00
12977;DHT22;6553;48.412;9.514;2024-02-14T13:55:05;18.80;64.00
12977;DHT22;6553;48.412;9.514;2024-02-14T13:57:39;18.80;64.00
12977;DHT22;6553;48.412;9.514;2024-02-14T14:00:06;18.80;64.00
12977;DHT22;6553;48.412;9.514;2024-02-14T14:02:38;18.80;64.00
12977;DHT22;6553;48.412;9.514;2024-02-14T14:05:10;18.90;64.20
12977;DHT22;6553;48.412;9.514;2024-02-14T14:07:38;18.90;64.20
12977;DHT22;6553;48.412;9.514;2024-02-14T14:10:08;18.90;64.20
12977;DHT22;6553;48.412;9.514;2024-02-14T14:12:35;18.80;64.10
12977;DHT22;6553;48.412;9.514;2024-02-14T14:15:01;18.90;64.20
12977;DHT22;6553;48.412;9.514;2024-02-14T14:17:27;18.90;64.20
12977;DHT22;6553;48.412;9.514;2024-02-14T14:19:54;18.90;64.20
12977;DHT22;6553;48.412;9.514;2024-02-14T14:22:20;18.90;64.20
12977;DHT22;6553;48.412;9.514;2024-02-14T14:24:46;18.90;64.30
12977;DHT22;6553;48.412;9.514;2024-02-14T14:27:12;18.80;64.10
12977;DHT22;6553;48.412;9.514;2024-02-14T14:29:42;18.90;64.30
12977;DHT22;6553;48.412;9.514;2024-02-14T14:32:11;18.80;64.20
12977;DHT22;6553;48.412;9.514;2024-02-14T14:34:37;18.90;64.30
12977;DHT22;6553;48.412;9.514;2024-02-14T14:37:03;18.90;64.30
12977;DHT22;6553;48.412;9.514;2024-02-14T14:39:29;18.90;64.30
12977;DHT22;6553;48.412;9.514;2024-02-14T14:41:56;18.90;64.30
12977;DHT22;6553;48.412;9.514;2024-02-14T14:44:24;18.90;64.40
12977;DHT22;6553;48.412;9.514;2024-02-14T14:46:51;18.80;64.40
12977;DHT22;6553;48.412;9.514;2024-02-14T14:49:17;18.80;64.40
12977;DHT22;6553;48.412;9.514;2024-02-14T14:51:43;18.90;64.50
12977;DHT22;6553;48.412;9.514;2024-02-14T14:54:09;18.90;64.50
12977;DHT22;6553;48.412;9.514;2024-02-14T14:56:35;18.90;64.60
12977;DHT22;6553;48.412;9.514;2024-02-14T14:59:01;18.90;64.50
12977;DHT22;6553;48.412;9.514;2024-02-14T15:01:30;18.90;64.50
12977;DHT22;6553;48.412;9.514;2024-02-14T15:03:56;18.80;64.40
12977;DHT22;6553;48.412;9.514;2024-02-14T15:06:21;18.90;64.50
12977;DHT22;6553;48.412;9.514;2024-02-14T15:08:47;18.90;64.50
12977;DHT22;6553;48.412;9.514;2024-02-14T15:11:13;18.90;64.50
12977;DHT22;6553;48.412;9.514;2024-02-14T15:13:42;18.90;64.50
12977;DHT22;6553;48.412;9.514;2024-02-14T15:16:09;18.90;64.50
12977;DHT22;6553;48.412;9.514;2024-02-14T15:18:35;18.90;64.50
12977;DHT22;6553;48.412;9.514;2024-02-14T15:21:02;18.90;64.50
12977;DHT22;6553;48.412;9.514;2024-02-14T15:23:28;18.90;64.50
12977;DHT22;6553;48.412;9.514;2024-02-14T15:25:54;18.90;64.50
12977;DHT22;6553;48.412;9.514;2024-02-14T15:28:31;18.90;64.60
12977;DHT22;6553;48.412;9.514;2024-02-14T15:30:59;18.90;64.60
12977;DHT22;6553;48.412;9.514;2024-02-14T15:33:43;18.90;64.60
12977;DHT22;6553;48.412;9.514;2024-02-14T15:36:10;18.90;64.70
12977;DHT22;6553;48.412;9.514;2024-02-14T15:38:40;18.90;64.70
12977;DHT22;6553;48.412;9.514;2024-02-14T15:41:07;18.90;64.70
12977;DHT22;6553;48.412;9.514;2024-02-14T15:43:35;18.90;64.70